createdAt,value
2022-12-08T00:00:46.979Z,99.99
2022-12-08T00:01:47.054Z,99.99
2022-12-08T00:02:47.136Z,99.99
2022-12-08T00:03:46.986Z,99.99
2022-12-08T00:04:46.961Z,99.93
2022-12-08T00:05:46.903Z,99.93
2022-12-08T00:06:46.914Z,99.99
2022-12-08T00:07:46.911Z,99.99
2022-12-08T00:08:46.887Z,99.99
2022-12-08T00:09:46.868Z,99.99
2022-12-08T00:10:49.755Z,99.99
2022-12-08T00:11:46.839Z,99.99
2022-12-08T00:12:46.826Z,99.99
2022-12-08T00:13:46.806Z,99.99
2022-12-08T00:14:46.821Z,99.99
2022-12-08T00:15:46.793Z,99.99
2022-12-08T00:16:46.837Z,99.99
2022-12-08T00:17:46.752Z,99.99
2022-12-08T00:18:46.746Z,99.99
2022-12-08T00:19:46.745Z,99.99
2022-12-08T00:20:46.737Z,99.99
2022-12-08T00:21:46.700Z,99.99
2022-12-08T00:22:47.834Z,99.99
2022-12-08T00:23:46.673Z,99.99
2022-12-08T00:24:46.694Z,99.99
2022-12-08T00:25:46.642Z,99.99
2022-12-08T00:26:46.671Z,99.99
2022-12-08T00:27:46.653Z,99.99
2022-12-08T00:28:46.622Z,99.99
2022-12-08T00:29:46.617Z,99.99
2022-12-08T00:30:46.635Z,99.99
2022-12-08T00:31:46.634Z,99.99
2022-12-08T00:32:46.561Z,99.99
2022-12-08T00:33:46.560Z,99.99
2022-12-08T00:34:46.548Z,99.99
2022-12-08T00:35:46.529Z,99.99
2022-12-08T00:36:46.511Z,99.99
2022-12-08T00:37:46.501Z,99.99
2022-12-08T00:38:46.479Z,99.99
2022-12-08T00:39:46.474Z,99.99
2022-12-08T00:40:46.458Z,99.99
2022-12-08T00:41:46.439Z,99.99
2022-12-08T00:42:46.421Z,99.99
2022-12-08T00:43:46.414Z,99.99
2022-12-08T00:44:46.436Z,99.99
2022-12-08T00:45:46.489Z,99.99
2022-12-08T00:46:46.369Z,99.93
2022-12-08T00:47:46.359Z,99.93
2022-12-08T00:48:46.350Z,99.93
2022-12-08T00:49:46.386Z,99.93
2022-12-08T00:50:46.319Z,99.93
2022-12-08T00:51:46.309Z,99.93
2022-12-08T00:52:46.295Z,99.99
2022-12-08T00:53:46.341Z,99.99
2022-12-08T00:54:46.285Z,99.99
2022-12-08T00:55:46.281Z,99.99
2022-12-08T00:56:46.280Z,99.99
2022-12-08T00:57:46.244Z,99.99
2022-12-08T00:58:46.211Z,99.99
2022-12-08T00:59:46.221Z,99.99
2022-12-08T01:00:46.299Z,99.99
2022-12-08T01:01:46.184Z,99.99
2022-12-08T01:02:46.156Z,99.99
2022-12-08T01:03:46.221Z,99.99
2022-12-08T01:04:46.132Z,99.99
2022-12-08T01:05:46.124Z,99.99
2022-12-08T01:06:46.176Z,99.99
2022-12-08T01:07:46.130Z,99.99
2022-12-08T01:08:46.303Z,99.99
2022-12-08T01:09:46.074Z,99.99
2022-12-08T01:10:46.068Z,99.99
2022-12-08T01:11:46.049Z,99.99
2022-12-08T01:12:46.025Z,99.99
2022-12-08T01:13:46.042Z,99.99
2022-12-08T01:14:46.006Z,99.99
2022-12-08T01:15:45.998Z,99.99
2022-12-08T01:16:46.029Z,99.99
2022-12-08T01:17:45.983Z,99.99
2022-12-08T01:18:45.969Z,99.99
2022-12-08T01:19:45.947Z,99.99
2022-12-08T01:20:45.953Z,99.99
2022-12-08T01:21:45.928Z,99.99
2022-12-08T01:22:45.905Z,99.99
2022-12-08T01:23:45.889Z,99.99
2022-12-08T01:24:45.893Z,99.99
2022-12-08T01:25:45.868Z,99.99
2022-12-08T01:26:45.853Z,99.99
2022-12-08T01:27:45.855Z,99.99
2022-12-08T01:28:45.837Z,99.99
2022-12-08T01:29:45.853Z,99.99
2022-12-08T01:30:45.897Z,99.99
2022-12-08T01:31:45.803Z,99.99
2022-12-08T01:32:45.910Z,99.99
2022-12-08T01:33:45.767Z,99.99
2022-12-08T01:34:45.764Z,99.99
2022-12-08T01:35:45.738Z,99.99
2022-12-08T01:36:45.719Z,99.99
2022-12-08T01:37:45.726Z,99.99
2022-12-08T01:38:45.849Z,99.99
2022-12-08T01:39:45.712Z,99.99
2022-12-08T01:40:45.667Z,99.99
2022-12-08T01:41:45.672Z,99.99
2022-12-08T01:42:45.659Z,99.99
2022-12-08T01:43:45.656Z,99.99
2022-12-08T01:44:45.637Z,99.99
2022-12-08T01:45:45.686Z,99.99
2022-12-08T01:46:45.668Z,99.99
2022-12-08T01:47:45.664Z,99.99
2022-12-08T01:48:45.562Z,99.99
2022-12-08T01:49:45.575Z,99.99
2022-12-08T01:50:45.584Z,99.99
2022-12-08T01:51:45.559Z,99.99
2022-12-08T01:52:45.534Z,99.99
2022-12-08T01:53:45.520Z,99.99
2022-12-08T01:54:45.502Z,99.99
2022-12-08T01:55:45.478Z,99.99
2022-12-08T01:56:45.475Z,99.99
2022-12-08T01:57:45.457Z,99.99
2022-12-08T01:58:45.436Z,99.99
2022-12-08T01:59:45.441Z,99.99
2022-12-08T02:00:45.524Z,99.99
2022-12-08T02:01:45.456Z,99.99
2022-12-08T02:02:45.426Z,99.99
2022-12-08T02:03:45.405Z,99.99
2022-12-08T02:04:45.379Z,99.99
2022-12-08T02:05:45.357Z,99.99
2022-12-08T02:06:45.345Z,99.99
2022-12-08T02:07:45.362Z,99.99
2022-12-08T02:08:45.326Z,99.99
2022-12-08T02:09:45.330Z,99.99
2022-12-08T02:10:45.283Z,99.99
2022-12-08T02:11:45.283Z,99.99
2022-12-08T02:12:45.256Z,99.99
2022-12-08T02:13:45.251Z,99.88
2022-12-08T02:14:45.249Z,99.78
2022-12-08T02:15:45.256Z,99.68
2022-12-08T02:16:45.211Z,99.47
2022-12-08T02:17:45.199Z,99.37
2022-12-08T02:18:50.471Z,99.37
2022-12-08T02:19:45.231Z,99.37
2022-12-08T02:20:45.162Z,99.26
2022-12-08T02:21:45.145Z,99.26
2022-12-08T02:22:45.125Z,99.26
2022-12-08T02:23:45.138Z,99.16
2022-12-08T02:24:45.101Z,99.05
2022-12-08T02:25:45.107Z,98.95
2022-12-08T02:26:45.070Z,98.95
2022-12-08T02:27:45.064Z,98.95
2022-12-08T02:28:45.064Z,98.95
2022-12-08T02:29:45.034Z,98.95
2022-12-08T02:30:45.113Z,98.85
2022-12-08T02:31:45.043Z,98.85
2022-12-08T02:32:45.010Z,98.74
2022-12-08T02:33:44.998Z,98.74
2022-12-08T02:34:44.996Z,98.74
2022-12-08T02:35:45.023Z,98.64
2022-12-08T02:36:44.995Z,98.64
2022-12-08T02:37:44.939Z,98.54
2022-12-08T02:38:45.001Z,98.54
2022-12-08T02:39:44.934Z,98.43
2022-12-08T02:40:52.124Z,98.33
2022-12-08T02:41:44.899Z,98.22
2022-12-08T02:42:44.874Z,98.22
2022-12-08T02:43:44.869Z,98.02
2022-12-08T02:44:44.870Z,98.02
2022-12-08T02:45:44.846Z,98.02
2022-12-08T02:46:44.895Z,97.97
2022-12-08T02:47:44.826Z,97.97
2022-12-08T02:48:44.826Z,97.97
2022-12-08T02:49:44.835Z,97.91
2022-12-08T02:50:44.775Z,97.77
2022-12-08T02:51:44.785Z,97.77
2022-12-08T02:52:44.752Z,97.77
2022-12-08T02:58:38.927Z,97.66
2022-12-08T02:59:39.925Z,97.56
2022-12-08T03:00:39.893Z,97.56
2022-12-08T03:01:39.928Z,97.45
2022-12-08T03:02:39.905Z,97.45
2022-12-08T03:03:39.871Z,97.45
2022-12-08T03:04:39.850Z,97.35
2022-12-08T03:05:39.834Z,97.35
2022-12-08T03:06:39.815Z,97.25
2022-12-08T03:07:39.864Z,97.14
2022-12-08T03:08:39.808Z,97.04
2022-12-08T03:09:39.795Z,97.04
2022-12-08T03:10:39.771Z,96.94
2022-12-08T03:11:39.748Z,96.73
2022-12-08T03:12:39.751Z,96.62
2022-12-08T03:13:39.738Z,96.73
2022-12-08T03:14:39.718Z,96.73
2022-12-08T03:15:39.773Z,96.73
2022-12-08T03:16:39.691Z,96.62
2022-12-08T03:17:39.679Z,96.62
2022-12-08T03:18:39.698Z,96.52
2022-12-08T03:19:39.643Z,96.62
2022-12-08T03:20:39.641Z,96.67
2022-12-08T03:21:39.624Z,96.73
2022-12-08T03:22:39.616Z,96.62
2022-12-08T03:23:39.624Z,96.62
2022-12-08T03:24:39.589Z,96.52
2022-12-08T03:26:50.635Z,96.31
2022-12-08T03:27:51.627Z,96.47
2022-12-08T03:28:51.626Z,96.31
2022-12-08T03:29:51.616Z,96.47
2022-12-08T03:30:51.597Z,96.57
2022-12-08T03:31:51.591Z,96.67
2022-12-08T03:32:51.586Z,96.67
2022-12-08T03:33:51.590Z,96.73
2022-12-08T03:34:51.542Z,96.78
2022-12-08T03:38:40.710Z,96.47
2022-12-08T03:39:41.701Z,96.42
2022-12-08T03:40:41.685Z,96.42
2022-12-08T03:41:41.674Z,96.47
2022-12-08T03:42:41.650Z,96.36
2022-12-08T03:43:41.666Z,96.31
2022-12-08T03:44:41.627Z,96.36
2022-12-08T03:45:41.635Z,96.36
2022-12-08T03:46:41.638Z,96.36
2022-12-08T03:47:41.598Z,96.31
2022-12-08T03:48:41.595Z,96.36
2022-12-08T03:49:41.566Z,96.36
2022-12-08T03:50:41.602Z,96.36
2022-12-08T03:51:41.543Z,96.47
2022-12-08T03:52:41.541Z,96.47
2022-12-08T03:53:41.536Z,96.57
2022-12-08T03:54:41.511Z,96.47
2022-12-08T03:55:41.512Z,96.52
2022-12-08T03:56:41.471Z,96.52
2022-12-08T03:57:41.468Z,96.62
2022-12-08T03:58:41.469Z,96.52
2022-12-08T03:59:41.453Z,96.52
2022-12-08T04:00:41.429Z,96.52
2022-12-08T04:01:41.510Z,96.62
2022-12-08T04:02:41.470Z,96.62
2022-12-08T04:03:41.410Z,96.62
2022-12-08T04:04:41.380Z,96.62
2022-12-08T04:05:41.361Z,96.52
2022-12-08T04:06:41.349Z,96.52
2022-12-08T04:07:41.402Z,96.52
2022-12-08T04:08:41.333Z,96.52
2022-12-08T04:09:41.321Z,96.62
2022-12-08T04:10:41.341Z,96.73
2022-12-08T04:11:41.287Z,96.73
2022-12-08T04:12:41.283Z,96.73
2022-12-08T04:13:41.278Z,96.73
2022-12-08T04:14:41.248Z,96.73
2022-12-08T04:15:41.301Z,96.83
2022-12-08T04:16:41.257Z,97.04
2022-12-08T04:17:41.220Z,97.14
2022-12-08T04:18:41.210Z,97.14
2022-12-08T04:19:41.189Z,97.14
2022-12-08T04:20:41.197Z,97.25
2022-12-08T04:21:41.167Z,97.25
2022-12-08T04:22:41.141Z,97.35
2022-12-08T04:23:41.158Z,97.35
2022-12-08T04:24:41.759Z,97.45
2022-12-08T04:25:41.110Z,97.56
2022-12-08T04:26:41.105Z,97.56
2022-12-08T04:27:41.091Z,97.60
2022-12-08T04:28:41.097Z,97.56
2022-12-08T04:29:41.074Z,97.45
2022-12-08T04:30:41.090Z,97.50
2022-12-08T04:31:41.085Z,97.45
2022-12-08T04:32:47.086Z,97.56
2022-12-08T04:33:41.052Z,97.56
2022-12-08T04:34:40.985Z,97.66
2022-12-08T04:38:40.181Z,97.66
2022-12-08T04:39:41.144Z,97.77
2022-12-08T04:40:41.156Z,97.87
2022-12-08T04:41:41.127Z,97.87
2022-12-08T04:42:41.112Z,97.87
2022-12-08T04:43:41.115Z,97.87
2022-12-08T04:44:41.110Z,97.97
2022-12-08T04:45:41.119Z,98.08
2022-12-08T04:46:43.676Z,98.18
2022-12-08T04:47:41.047Z,98.28
2022-12-08T04:48:41.042Z,98.33
2022-12-08T04:49:41.022Z,98.33
2022-12-08T04:50:41.016Z,98.43
2022-12-08T04:51:40.993Z,98.43
2022-12-08T04:52:40.993Z,98.43
2022-12-08T04:53:46.253Z,98.43
2022-12-08T04:54:40.964Z,98.43
2022-12-08T04:55:40.944Z,98.54
2022-12-08T04:56:40.939Z,98.54
2022-12-08T04:57:40.927Z,98.54
2022-12-08T04:58:40.920Z,98.64
2022-12-08T04:59:40.902Z,98.60
2022-12-08T05:00:40.881Z,98.60
2022-12-08T05:01:41.086Z,98.70
2022-12-08T05:02:40.927Z,98.70
2022-12-08T05:03:40.857Z,98.70
2022-12-08T05:04:40.839Z,98.80
2022-12-08T05:05:40.826Z,98.91
2022-12-08T05:06:40.805Z,99.01
2022-12-08T05:07:40.876Z,99.11
2022-12-08T05:08:40.812Z,99.22
2022-12-08T05:09:40.758Z,99.47
2022-12-08T05:10:40.751Z,99.68
2022-12-08T05:11:45.241Z,99.99
2022-12-08T05:12:40.732Z,99.99
2022-12-08T05:13:40.729Z,99.99
2022-12-08T05:14:40.700Z,99.99
2022-12-08T05:15:40.712Z,99.99
2022-12-08T05:16:40.709Z,99.99
2022-12-08T05:17:40.684Z,99.99
2022-12-08T05:18:40.668Z,99.99
2022-12-08T05:19:40.630Z,99.99
2022-12-08T05:20:40.620Z,99.99
2022-12-08T05:21:40.603Z,99.99
2022-12-08T05:22:40.607Z,99.99
2022-12-08T05:23:40.601Z,99.99
2022-12-08T05:24:47.032Z,99.99
2022-12-08T05:25:40.569Z,99.99
2022-12-08T05:26:40.541Z,99.99
2022-12-08T05:27:40.544Z,99.99
2022-12-08T05:28:42.428Z,99.99
2022-12-08T05:29:40.508Z,99.99
2022-12-08T05:30:40.497Z,99.99
2022-12-08T05:31:40.570Z,99.99
2022-12-08T05:32:40.478Z,99.99
2022-12-08T05:33:40.480Z,99.99
2022-12-08T05:34:40.495Z,99.99
2022-12-08T05:35:40.569Z,99.99
2022-12-08T05:36:40.417Z,99.99
2022-12-08T05:37:40.400Z,99.99
2022-12-08T05:38:40.483Z,99.99
2022-12-08T05:39:40.373Z,99.99
2022-12-08T05:40:40.364Z,99.99
2022-12-08T05:41:40.351Z,99.99
2022-12-08T05:42:40.341Z,99.99
2022-12-08T05:43:40.372Z,99.99
2022-12-08T05:44:40.307Z,99.99
2022-12-08T05:45:40.336Z,99.99
2022-12-08T05:46:40.303Z,99.99
2022-12-08T05:47:40.272Z,99.99
2022-12-08T05:48:40.274Z,99.99
2022-12-08T05:49:40.259Z,99.99
2022-12-08T05:50:40.230Z,99.99
2022-12-08T05:51:40.211Z,99.99
2022-12-08T05:52:40.210Z,99.99
2022-12-08T05:53:40.218Z,99.99
2022-12-08T05:54:40.179Z,99.99
2022-12-08T05:55:40.160Z,99.99
2022-12-08T05:56:40.161Z,99.99
2022-12-08T05:57:40.136Z,99.99
2022-12-08T05:58:40.155Z,99.99
2022-12-08T05:59:40.115Z,99.99
2022-12-08T06:00:40.096Z,99.99
2022-12-08T06:01:40.159Z,99.99
2022-12-08T06:02:40.203Z,99.99
2022-12-08T06:03:40.098Z,99.99
2022-12-08T06:04:40.054Z,99.99
2022-12-08T06:05:40.050Z,99.99
2022-12-08T06:06:40.022Z,99.99
2022-12-08T06:07:40.039Z,99.99
2022-12-08T06:08:40.030Z,99.99
2022-12-08T06:09:39.987Z,99.99
2022-12-08T06:10:39.973Z,99.99
2022-12-08T06:11:39.957Z,99.99
2022-12-08T06:12:39.951Z,99.99
2022-12-08T06:13:39.951Z,99.99
2022-12-08T06:14:39.926Z,99.99
2022-12-08T06:15:39.924Z,99.99
2022-12-08T06:16:39.961Z,99.99
2022-12-08T06:17:39.885Z,99.99
2022-12-08T06:18:39.861Z,99.99
2022-12-08T06:19:39.872Z,99.99
2022-12-08T06:20:39.906Z,99.99
2022-12-08T06:21:39.821Z,99.99
2022-12-08T06:22:39.817Z,99.99
2022-12-08T06:23:39.815Z,99.99
2022-12-08T06:24:39.899Z,99.99
2022-12-08T06:25:39.785Z,99.99
2022-12-08T06:26:39.763Z,99.99
2022-12-08T06:27:39.764Z,99.99
2022-12-08T06:28:39.735Z,99.99
2022-12-08T06:29:39.733Z,99.99
2022-12-08T06:30:39.719Z,99.99
2022-12-08T06:31:39.779Z,99.99
2022-12-08T06:32:39.679Z,99.99
2022-12-08T06:33:39.680Z,99.99
2022-12-08T06:34:39.708Z,99.99
2022-12-08T06:38:43.139Z,99.99
2022-12-08T06:39:39.835Z,99.99
2022-12-08T06:40:39.829Z,99.99
2022-12-08T06:41:39.796Z,99.99
2022-12-08T06:42:39.802Z,99.99
2022-12-08T06:43:39.815Z,99.99
2022-12-08T06:44:39.815Z,99.99
2022-12-08T06:45:39.778Z,99.99
2022-12-08T06:46:39.745Z,99.99
2022-12-08T06:47:39.718Z,99.99
2022-12-08T06:48:39.668Z,99.99
2022-12-08T06:49:39.667Z,99.99
2022-12-08T06:50:39.709Z,99.99
2022-12-08T06:51:39.714Z,99.99
2022-12-08T06:52:49.361Z,99.99
2022-12-08T06:53:39.610Z,99.99
2022-12-08T06:54:39.668Z,99.99
2022-12-08T06:55:58.259Z,99.99
2022-12-08T06:56:39.579Z,99.99
2022-12-08T06:57:39.543Z,99.99
2022-12-08T06:58:39.594Z,99.99
2022-12-08T06:59:39.558Z,99.99
2022-12-08T07:00:39.562Z,99.99
2022-12-08T07:01:39.561Z,99.99
2022-12-08T07:02:39.531Z,99.99
2022-12-08T07:03:39.459Z,99.99
2022-12-08T07:04:39.481Z,99.99
2022-12-08T07:05:39.473Z,99.99
2022-12-08T07:06:39.433Z,99.99
2022-12-08T07:07:39.465Z,99.99
2022-12-08T07:08:39.404Z,99.99
2022-12-08T07:09:39.423Z,99.99
2022-12-08T07:10:39.381Z,99.99
2022-12-08T07:11:39.385Z,99.99
2022-12-08T07:12:39.346Z,99.99
2022-12-08T07:13:39.338Z,99.99
2022-12-08T07:14:39.342Z,99.99
2022-12-08T07:15:39.339Z,99.99
2022-12-08T07:16:39.392Z,99.99
2022-12-08T07:17:39.287Z,99.99
2022-12-08T07:18:39.286Z,99.99
2022-12-08T07:19:39.284Z,99.99
2022-12-08T07:20:39.255Z,99.99
2022-12-08T07:21:39.232Z,99.99
2022-12-08T07:22:39.255Z,99.99
2022-12-08T07:23:39.203Z,99.99
2022-12-08T07:24:39.227Z,99.99
2022-12-08T07:25:39.187Z,99.99
2022-12-08T07:26:39.175Z,99.99
2022-12-08T07:27:39.150Z,99.99
2022-12-08T07:28:39.149Z,99.99
2022-12-08T07:29:39.169Z,99.99
2022-12-08T07:30:39.169Z,99.99
2022-12-08T07:31:39.134Z,99.99
2022-12-08T07:32:39.119Z,99.99
2022-12-08T07:33:39.085Z,99.99
2022-12-08T07:34:39.105Z,99.99
2022-12-08T07:38:48.213Z,99.99
2022-12-08T07:39:49.206Z,99.99
2022-12-08T07:40:49.158Z,99.99
2022-12-08T07:41:49.164Z,99.99
2022-12-08T07:42:49.164Z,99.99
2022-12-08T07:43:49.157Z,99.99
2022-12-08T07:44:49.137Z,99.99
2022-12-08T07:45:49.153Z,99.99
2022-12-08T07:46:49.088Z,99.99
2022-12-08T07:47:49.094Z,99.99
2022-12-08T07:48:49.095Z,99.99
2022-12-08T07:49:49.079Z,99.99
2022-12-08T07:50:49.054Z,99.99
2022-12-08T07:51:49.052Z,99.99
2022-12-08T07:52:49.029Z,99.99
2022-12-08T07:53:53.849Z,99.99
2022-12-08T07:54:49.018Z,99.99
2022-12-08T07:55:49.007Z,99.99
2022-12-08T07:56:48.960Z,99.99
2022-12-08T07:57:49.137Z,99.99
2022-12-08T07:58:48.973Z,99.99
2022-12-08T07:59:48.966Z,99.99
2022-12-08T08:00:48.953Z,99.99
2022-12-08T08:02:06.323Z,99.99
2022-12-08T08:02:48.922Z,99.99
2022-12-08T08:03:48.935Z,99.99
2022-12-08T08:04:48.975Z,99.99
2022-12-08T08:05:48.859Z,99.99
2022-12-08T08:06:48.831Z,99.99
2022-12-08T08:07:48.889Z,99.99
2022-12-08T08:08:48.824Z,99.99
2022-12-08T08:09:48.815Z,99.99
2022-12-08T08:10:48.820Z,99.99
2022-12-08T08:12:14.336Z,99.99
2022-12-08T08:12:48.773Z,99.99
2022-12-08T08:13:48.770Z,99.99
2022-12-08T08:14:48.738Z,99.99
2022-12-08T08:15:48.990Z,99.99
2022-12-08T08:16:48.871Z,99.99
2022-12-08T08:17:48.727Z,99.99
2022-12-08T08:18:48.717Z,99.99
2022-12-08T08:19:48.705Z,99.99
2022-12-08T08:20:48.660Z,99.99
2022-12-08T08:21:48.882Z,99.99
2022-12-08T08:22:54.650Z,99.99
2022-12-08T08:23:54.710Z,99.99
2022-12-08T08:24:54.632Z,99.99
2022-12-08T08:25:54.618Z,99.99
2022-12-08T08:26:54.611Z,99.99
2022-12-08T08:27:54.616Z,99.99
2022-12-08T08:28:48.595Z,99.99
2022-12-08T08:29:48.557Z,99.99
2022-12-08T08:30:48.636Z,99.99
2022-12-08T08:31:48.551Z,99.99
2022-12-08T08:32:48.779Z,99.99
2022-12-08T08:33:48.519Z,99.99
2022-12-08T08:34:48.492Z,99.99
